sensor_id;sensor_type;location;lat;lon;timestamp;P1;durP1;ratioP1;P2;durP2;ratioP2
49730;SDS011;35622;52.008;5.426;2023-03-21T00:00:35;35.85;;;22.55;;
49730;SDS011;35622;52.008;5.426;2023-03-21T00:03:01;32.35;;;21.83;;
49730;SDS011;35622;52.008;5.426;2023-03-21T00:05:27;31.77;;;21.77;;
49730;SDS011;35622;52.008;5.426;2023-03-21T00:07:53;34.83;;;22.13;;
49730;SDS011;35622;52.008;5.426;2023-03-21T00:10:18;35.40;;;21.63;;
49730;SDS011;35622;52.008;5.426;2023-03-21T00:12:44;32.13;;;22.25;;
49730;SDS011;35622;52.008;5.426;2023-03-21T00:15:10;30.63;;;21.42;;
49730;SDS011;35622;52.008;5.426;2023-03-21T00:17:37;31.42;;;21.25;;
49730;SDS011;35622;52.008;5.426;2023-03-21T00:20:04;28.67;;;19.70;;
49730;SDS011;35622;52.008;5.426;2023-03-21T00:22:39;27.67;;;19.83;;
49730;SDS011;35622;52.008;5.426;2023-03-21T00:25:05;30.60;;;19.90;;
49730;SDS011;35622;52.008;5.426;2023-03-21T00:27:32;29.20;;;19.60;;
49730;SDS011;35622;52.008;5.426;2023-03-21T00:29:58;29.98;;;20.27;;
49730;SDS011;35622;52.008;5.426;2023-03-21T00:32:24;27.27;;;19.08;;
49730;SDS011;35622;52.008;5.426;2023-03-21T00:34:50;32.70;;;21.38;;
49730;SDS011;35622;52.008;5.426;2023-03-21T00:37:16;32.10;;;21.83;;
49730;SDS011;35622;52.008;5.426;2023-03-21T00:39:43;34.08;;;22.15;;
49730;SDS011;35622;52.008;5.426;2023-03-21T00:42:13;35.55;;;22.83;;
49730;SDS011;35622;52.008;5.426;2023-03-21T00:44:39;39.03;;;24.88;;
49730;SDS011;35622;52.008;5.426;2023-03-21T00:47:05;36.60;;;23.85;;
49730;SDS011;35622;52.008;5.426;2023-03-21T00:49:31;37.25;;;23.98;;
49730;SDS011;35622;52.008;5.426;2023-03-21T00:52:02;42.58;;;25.35;;
49730;SDS011;35622;52.008;5.426;2023-03-21T00:54:30;40.45;;;26.83;;
49730;SDS011;35622;52.008;5.426;2023-03-21T00:56:57;40.30;;;27.00;;
49730;SDS011;35622;52.008;5.426;2023-03-21T00:59:22;40.28;;;26.85;;
49730;SDS011;35622;52.008;5.426;2023-03-21T01:01:48;45.88;;;27.60;;
49730;SDS011;35622;52.008;5.426;2023-03-21T01:04:13;42.42;;;27.33;;
49730;SDS011;35622;52.008;5.426;2023-03-21T01:06:41;42.58;;;27.42;;
49730;SDS011;35622;52.008;5.426;2023-03-21T01:09:12;43.35;;;28.17;;
49730;SDS011;35622;52.008;5.426;2023-03-21T01:11:39;41.40;;;27.08;;
49730;SDS011;35622;52.008;5.426;2023-03-21T01:14:06;46.92;;;29.60;;
49730;SDS011;35622;52.008;5.426;2023-03-21T01:16:32;46.03;;;29.02;;
49730;SDS011;35622;52.008;5.426;2023-03-21T01:18:57;46.00;;;27.50;;
49730;SDS011;35622;52.008;5.426;2023-03-21T01:21:23;53.05;;;30.98;;
49730;SDS011;35622;52.008;5.426;2023-03-21T01:23:49;47.83;;;29.67;;
49730;SDS011;35622;52.008;5.426;2023-03-21T01:26:15;52.85;;;30.52;;
49730;SDS011;35622;52.008;5.426;2023-03-21T01:28:41;48.33;;;29.58;;
49730;SDS011;35622;52.008;5.426;2023-03-21T01:31:09;57.75;;;30.00;;
49730;SDS011;35622;52.008;5.426;2023-03-21T01:33:36;50.13;;;29.42;;
49730;SDS011;35622;52.008;5.426;2023-03-21T01:36:02;49.72;;;30.05;;
49730;SDS011;35622;52.008;5.426;2023-03-21T01:38:28;47.03;;;28.75;;
49730;SDS011;35622;52.008;5.426;2023-03-21T01:40:54;53.97;;;30.45;;
49730;SDS011;35622;52.008;5.426;2023-03-21T01:43:22;46.45;;;29.30;;
49730;SDS011;35622;52.008;5.426;2023-03-21T01:48:35;46.22;;;29.77;;
49730;SDS011;35622;52.008;5.426;2023-03-21T01:51:04;48.20;;;28.55;;
49730;SDS011;35622;52.008;5.426;2023-03-21T01:53:30;44.28;;;28.40;;
49730;SDS011;35622;52.008;5.426;2023-03-21T01:56:02;50.80;;;29.42;;
49730;SDS011;35622;52.008;5.426;2023-03-21T01:58:32;49.80;;;28.58;;
49730;SDS011;35622;52.008;5.426;2023-03-21T02:00:59;43.63;;;26.98;;
49730;SDS011;35622;52.008;5.426;2023-03-21T02:03:26;47.22;;;27.65;;
49730;SDS011;35622;52.008;5.426;2023-03-21T02:06:03;47.60;;;27.25;;
49730;SDS011;35622;52.008;5.426;2023-03-21T02:08:31;44.00;;;27.08;;
49730;SDS011;35622;52.008;5.426;2023-03-21T02:10:57;44.25;;;26.83;;
49730;SDS011;35622;52.008;5.426;2023-03-21T02:13:23;46.55;;;27.55;;
49730;SDS011;35622;52.008;5.426;2023-03-21T02:15:56;49.85;;;28.17;;
49730;SDS011;35622;52.008;5.426;2023-03-21T02:18:33;42.53;;;26.95;;
49730;SDS011;35622;52.008;5.426;2023-03-21T02:35:27;44.33;;;27.88;;
49730;SDS011;35622;52.008;5.426;2023-03-21T02:38:24;42.45;;;25.70;;
49730;SDS011;35622;52.008;5.426;2023-03-21T02:41:14;45.40;;;27.63;;
49730;SDS011;35622;52.008;5.426;2023-03-21T02:44:04;44.45;;;26.90;;
49730;SDS011;35622;52.008;5.426;2023-03-21T02:46:50;42.97;;;26.45;;
49730;SDS011;35622;52.008;5.426;2023-03-21T02:49:23;44.60;;;26.52;;
49730;SDS011;35622;52.008;5.426;2023-03-21T02:51:54;43.15;;;26.05;;
49730;SDS011;35622;52.008;5.426;2023-03-21T02:54:22;51.85;;;26.42;;
49730;SDS011;35622;52.008;5.426;2023-03-21T02:56:50;51.40;;;26.45;;
49730;SDS011;35622;52.008;5.426;2023-03-21T02:59:18;39.28;;;25.08;;
49730;SDS011;35622;52.008;5.426;2023-03-21T03:01:46;46.72;;;26.92;;
49730;SDS011;35622;52.008;5.426;2023-03-21T03:04:17;39.50;;;25.17;;
49730;SDS011;35622;52.008;5.426;2023-03-21T03:12:31;44.67;;;26.83;;
49730;SDS011;35622;52.008;5.426;2023-03-21T03:15:16;42.97;;;26.05;;
49730;SDS011;35622;52.008;5.426;2023-03-21T03:18:18;40.85;;;25.13;;
49730;SDS011;35622;52.008;5.426;2023-03-21T03:26:18;46.47;;;27.35;;
49730;SDS011;35622;52.008;5.426;2023-03-21T03:28:51;45.85;;;27.13;;
49730;SDS011;35622;52.008;5.426;2023-03-21T03:31:24;50.63;;;29.25;;
49730;SDS011;35622;52.008;5.426;2023-03-21T03:33:54;45.65;;;27.63;;
49730;SDS011;35622;52.008;5.426;2023-03-21T03:36:23;45.28;;;27.35;;
49730;SDS011;35622;52.008;5.426;2023-03-21T03:38:54;45.08;;;27.70;;
49730;SDS011;35622;52.008;5.426;2023-03-21T03:41:23;44.10;;;26.55;;
49730;SDS011;35622;52.008;5.426;2023-03-21T03:43:51;42.05;;;26.50;;
49730;SDS011;35622;52.008;5.426;2023-03-21T03:46:28;47.28;;;27.20;;
49730;SDS011;35622;52.008;5.426;2023-03-21T03:48:59;43.65;;;27.27;;
49730;SDS011;35622;52.008;5.426;2023-03-21T03:51:32;39.75;;;26.58;;
49730;SDS011;35622;52.008;5.426;2023-03-21T03:54:09;42.70;;;26.27;;
49730;SDS011;35622;52.008;5.426;2023-03-21T03:56:38;46.65;;;27.02;;
49730;SDS011;35622;52.008;5.426;2023-03-21T03:59:04;38.85;;;23.98;;
49730;SDS011;35622;52.008;5.426;2023-03-21T04:01:31;42.13;;;25.17;;
49730;SDS011;35622;52.008;5.426;2023-03-21T04:03:58;40.47;;;24.48;;
49730;SDS011;35622;52.008;5.426;2023-03-21T04:06:24;41.75;;;25.10;;
49730;SDS011;35622;52.008;5.426;2023-03-21T04:08:52;33.58;;;22.63;;
49730;SDS011;35622;52.008;5.426;2023-03-21T04:11:20;36.80;;;23.02;;
49730;SDS011;35622;52.008;5.426;2023-03-21T04:13:46;39.40;;;24.58;;
49730;SDS011;35622;52.008;5.426;2023-03-21T04:16:12;42.90;;;23.95;;
49730;SDS011;35622;52.008;5.426;2023-03-21T04:18:38;41.63;;;24.02;;
49730;SDS011;35622;52.008;5.426;2023-03-21T04:21:08;40.00;;;22.33;;
49730;SDS011;35622;52.008;5.426;2023-03-21T04:23:36;40.53;;;24.42;;
49730;SDS011;35622;52.008;5.426;2023-03-21T04:26:02;36.22;;;22.70;;
49730;SDS011;35622;52.008;5.426;2023-03-21T04:28:29;35.60;;;22.45;;
49730;SDS011;35622;52.008;5.426;2023-03-21T04:30:54;43.05;;;22.05;;
49730;SDS011;35622;52.008;5.426;2023-03-21T04:33:21;38.92;;;21.92;;
49730;SDS011;35622;52.008;5.426;2023-03-21T04:35:50;39.30;;;21.13;;
49730;SDS011;35622;52.008;5.426;2023-03-21T04:38:20;33.05;;;20.30;;
49730;SDS011;35622;52.008;5.426;2023-03-21T04:40:47;32.20;;;20.05;;
49730;SDS011;35622;52.008;5.426;2023-03-21T04:43:13;37.15;;;20.63;;
49730;SDS011;35622;52.008;5.426;2023-03-21T04:45:38;30.75;;;18.55;;
49730;SDS011;35622;52.008;5.426;2023-03-21T04:48:04;35.35;;;18.73;;
49730;SDS011;35622;52.008;5.426;2023-03-21T04:50:29;27.05;;;17.20;;
49730;SDS011;35622;52.008;5.426;2023-03-21T04:52:56;29.52;;;16.58;;
49730;SDS011;35622;52.008;5.426;2023-03-21T04:55:22;32.80;;;16.73;;
49730;SDS011;35622;52.008;5.426;2023-03-21T04:57:49;30.00;;;17.35;;
49730;SDS011;35622;52.008;5.426;2023-03-21T05:00:15;26.45;;;15.93;;
49730;SDS011;35622;52.008;5.426;2023-03-21T05:02:41;27.77;;;16.63;;
49730;SDS011;35622;52.008;5.426;2023-03-21T05:05:07;29.63;;;15.90;;
49730;SDS011;35622;52.008;5.426;2023-03-21T05:07:35;26.27;;;16.38;;
49730;SDS011;35622;52.008;5.426;2023-03-21T05:10:05;25.85;;;14.82;;
49730;SDS011;35622;52.008;5.426;2023-03-21T05:12:33;29.48;;;16.45;;
49730;SDS011;35622;52.008;5.426;2023-03-21T05:14:58;24.60;;;14.95;;
49730;SDS011;35622;52.008;5.426;2023-03-21T05:17:24;22.65;;;14.45;;
49730;SDS011;35622;52.008;5.426;2023-03-21T05:19:52;23.15;;;13.40;;
49730;SDS011;35622;52.008;5.426;2023-03-21T05:22:20;24.05;;;14.30;;
49730;SDS011;35622;52.008;5.426;2023-03-21T05:24:48;28.98;;;15.52;;
49730;SDS011;35622;52.008;5.426;2023-03-21T05:27:18;25.90;;;15.18;;
49730;SDS011;35622;52.008;5.426;2023-03-21T05:30:14;21.80;;;13.57;;
49730;SDS011;35622;52.008;5.426;2023-03-21T05:32:41;23.27;;;13.80;;
49730;SDS011;35622;52.008;5.426;2023-03-21T05:35:07;29.75;;;14.48;;
49730;SDS011;35622;52.008;5.426;2023-03-21T05:37:33;21.02;;;12.30;;
49730;SDS011;35622;52.008;5.426;2023-03-21T05:39:59;23.05;;;13.05;;
49730;SDS011;35622;52.008;5.426;2023-03-21T05:42:24;21.65;;;12.80;;
49730;SDS011;35622;52.008;5.426;2023-03-21T05:44:50;23.85;;;13.60;;
49730;SDS011;35622;52.008;5.426;2023-03-21T05:47:16;23.42;;;14.00;;
49730;SDS011;35622;52.008;5.426;2023-03-21T05:49:42;21.88;;;13.90;;
49730;SDS011;35622;52.008;5.426;2023-03-21T05:52:09;23.60;;;13.55;;
49730;SDS011;35622;52.008;5.426;2023-03-21T05:54:35;20.70;;;12.95;;
49730;SDS011;35622;52.008;5.426;2023-03-21T05:57:01;25.13;;;14.07;;
49730;SDS011;35622;52.008;5.426;2023-03-21T05:59:28;25.35;;;13.57;;
49730;SDS011;35622;52.008;5.426;2023-03-21T06:01:53;23.92;;;13.15;;
49730;SDS011;35622;52.008;5.426;2023-03-21T06:04:19;19.85;;;12.82;;
49730;SDS011;35622;52.008;5.426;2023-03-21T06:06:44;20.20;;;12.60;;
49730;SDS011;35622;52.008;5.426;2023-03-21T06:09:10;22.08;;;12.82;;
49730;SDS011;35622;52.008;5.426;2023-03-21T06:11:36;23.05;;;13.35;;
49730;SDS011;35622;52.008;5.426;2023-03-21T06:14:06;26.50;;;13.30;;
49730;SDS011;35622;52.008;5.426;2023-03-21T06:16:31;25.70;;;12.55;;
49730;SDS011;35622;52.008;5.426;2023-03-21T06:18:57;24.27;;;12.85;;
49730;SDS011;35622;52.008;5.426;2023-03-21T06:21:22;20.00;;;11.65;;
49730;SDS011;35622;52.008;5.426;2023-03-21T06:23:48;22.23;;;12.43;;
49730;SDS011;35622;52.008;5.426;2023-03-21T06:26:17;22.85;;;12.38;;
49730;SDS011;35622;52.008;5.426;2023-03-21T06:28:47;19.83;;;11.48;;
49730;SDS011;35622;52.008;5.426;2023-03-21T06:31:13;21.50;;;11.43;;
49730;SDS011;35622;52.008;5.426;2023-03-21T06:33:39;21.55;;;11.93;;
49730;SDS011;35622;52.008;5.426;2023-03-21T06:36:05;20.85;;;11.95;;
49730;SDS011;35622;52.008;5.426;2023-03-21T06:38:31;20.38;;;12.65;;
49730;SDS011;35622;52.008;5.426;2023-03-21T06:40:56;18.88;;;12.20;;
49730;SDS011;35622;52.008;5.426;2023-03-21T06:43:22;19.73;;;11.90;;
49730;SDS011;35622;52.008;5.426;2023-03-21T06:45:48;22.88;;;11.75;;
49730;SDS011;35622;52.008;5.426;2023-03-21T06:48:14;21.92;;;12.48;;
49730;SDS011;35622;52.008;5.426;2023-03-21T06:50:40;23.60;;;12.38;;
49730;SDS011;35622;52.008;5.426;2023-03-21T06:53:06;19.83;;;11.88;;
49730;SDS011;35622;52.008;5.426;2023-03-21T06:55:31;21.55;;;11.82;;
49730;SDS011;35622;52.008;5.426;2023-03-21T06:57:57;18.83;;;11.70;;
49730;SDS011;35622;52.008;5.426;2023-03-21T07:00:23;19.38;;;11.55;;
49730;SDS011;35622;52.008;5.426;2023-03-21T07:02:49;23.42;;;12.25;;
49730;SDS011;35622;52.008;5.426;2023-03-21T07:05:15;18.38;;;11.45;;
49730;SDS011;35622;52.008;5.426;2023-03-21T07:07:41;21.10;;;12.45;;
49730;SDS011;35622;52.008;5.426;2023-03-21T07:10:07;17.60;;;11.07;;
49730;SDS011;35622;52.008;5.426;2023-03-21T07:12:33;19.27;;;11.40;;
49730;SDS011;35622;52.008;5.426;2023-03-21T07:15:00;20.20;;;11.30;;
49730;SDS011;35622;52.008;5.426;2023-03-21T07:17:28;19.50;;;11.50;;
49730;SDS011;35622;52.008;5.426;2023-03-21T07:19:53;20.23;;;11.60;;
49730;SDS011;35622;52.008;5.426;2023-03-21T07:22:19;19.13;;;11.25;;
49730;SDS011;35622;52.008;5.426;2023-03-21T07:24:45;18.27;;;10.77;;
49730;SDS011;35622;52.008;5.426;2023-03-21T07:27:12;20.52;;;11.07;;
49730;SDS011;35622;52.008;5.426;2023-03-21T07:29:42;18.77;;;11.18;;
49730;SDS011;35622;52.008;5.426;2023-03-21T07:32:08;22.48;;;11.32;;
49730;SDS011;35622;52.008;5.426;2023-03-21T07:34:34;23.33;;;11.77;;
49730;SDS011;35622;52.008;5.426;2023-03-21T07:37:00;20.75;;;11.38;;
49730;SDS011;35622;52.008;5.426;2023-03-21T07:39:26;19.55;;;11.23;;
49730;SDS011;35622;52.008;5.426;2023-03-21T07:41:52;18.23;;;10.43;;
49730;SDS011;35622;52.008;5.426;2023-03-21T07:44:21;18.20;;;10.85;;
49730;SDS011;35622;52.008;5.426;2023-03-21T07:46:47;18.38;;;10.93;;
49730;SDS011;35622;52.008;5.426;2023-03-21T07:49:12;20.63;;;10.45;;
49730;SDS011;35622;52.008;5.426;2023-03-21T07:51:38;17.10;;;11.05;;
49730;SDS011;35622;52.008;5.426;2023-03-21T07:54:04;18.33;;;9.77;;
49730;SDS011;35622;52.008;5.426;2023-03-21T07:56:30;14.35;;;9.85;;
49730;SDS011;35622;52.008;5.426;2023-03-21T07:58:55;18.48;;;10.30;;
49730;SDS011;35622;52.008;5.426;2023-03-21T08:01:21;20.75;;;10.38;;
49730;SDS011;35622;52.008;5.426;2023-03-21T08:03:47;17.98;;;9.18;;
49730;SDS011;35622;52.008;5.426;2023-03-21T08:06:15;16.30;;;8.63;;
49730;SDS011;35622;52.008;5.426;2023-03-21T08:08:40;15.52;;;8.63;;
49730;SDS011;35622;52.008;5.426;2023-03-21T08:11:06;17.27;;;8.68;;
49730;SDS011;35622;52.008;5.426;2023-03-21T08:13:33;15.80;;;8.38;;
49730;SDS011;35622;52.008;5.426;2023-03-21T08:15:58;16.67;;;8.65;;
49730;SDS011;35622;52.008;5.426;2023-03-21T08:18:24;15.13;;;9.32;;
49730;SDS011;35622;52.008;5.426;2023-03-21T08:20:53;13.88;;;8.50;;
49730;SDS011;35622;52.008;5.426;2023-03-21T08:23:20;14.93;;;8.85;;
49730;SDS011;35622;52.008;5.426;2023-03-21T08:25:54;17.30;;;9.90;;
49730;SDS011;35622;52.008;5.426;2023-03-21T08:28:20;15.85;;;9.20;;
49730;SDS011;35622;52.008;5.426;2023-03-21T08:30:47;14.13;;;8.30;;
49730;SDS011;35622;52.008;5.426;2023-03-21T08:33:13;13.77;;;9.15;;
49730;SDS011;35622;52.008;5.426;2023-03-21T08:35:38;14.15;;;8.90;;
49730;SDS011;35622;52.008;5.426;2023-03-21T08:38:05;16.77;;;9.05;;
49730;SDS011;35622;52.008;5.426;2023-03-21T08:40:31;12.43;;;8.35;;
49730;SDS011;35622;52.008;5.426;2023-03-21T08:42:57;15.55;;;8.65;;
49730;SDS011;35622;52.008;5.426;2023-03-21T08:45:23;16.98;;;8.82;;
49730;SDS011;35622;52.008;5.426;2023-03-21T08:47:49;16.15;;;8.80;;
49730;SDS011;35622;52.008;5.426;2023-03-21T08:50:16;14.73;;;8.43;;
49730;SDS011;35622;52.008;5.426;2023-03-21T08:52:45;12.60;;;7.90;;
49730;SDS011;35622;52.008;5.426;2023-03-21T08:55:12;14.63;;;7.22;;
49730;SDS011;35622;52.008;5.426;2023-03-21T08:57:38;10.88;;;6.90;;
49730;SDS011;35622;52.008;5.426;2023-03-21T09:00:04;10.70;;;6.15;;
49730;SDS011;35622;52.008;5.426;2023-03-21T09:02:36;14.02;;;5.82;;
49730;SDS011;35622;52.008;5.426;2023-03-21T09:05:01;12.18;;;6.60;;
49730;SDS011;35622;52.008;5.426;2023-03-21T09:07:30;11.27;;;6.53;;
49730;SDS011;35622;52.008;5.426;2023-03-21T09:09:58;10.20;;;6.78;;
49730;SDS011;35622;52.008;5.426;2023-03-21T09:12:24;13.45;;;6.32;;
49730;SDS011;35622;52.008;5.426;2023-03-21T09:14:50;10.55;;;6.50;;
49730;SDS011;35622;52.008;5.426;2023-03-21T09:17:17;11.35;;;6.50;;
49730;SDS011;35622;52.008;5.426;2023-03-21T09:19:43;11.80;;;6.95;;
49730;SDS011;35622;52.008;5.426;2023-03-21T09:22:10;13.35;;;6.72;;
49730;SDS011;35622;52.008;5.426;2023-03-21T09:24:41;14.10;;;8.00;;
49730;SDS011;35622;52.008;5.426;2023-03-21T09:27:10;13.23;;;7.38;;
49730;SDS011;35622;52.008;5.426;2023-03-21T09:29:36;12.13;;;7.43;;
49730;SDS011;35622;52.008;5.426;2023-03-21T09:32:02;15.68;;;8.35;;
49730;SDS011;35622;52.008;5.426;2023-03-21T09:34:28;12.38;;;8.43;;
49730;SDS011;35622;52.008;5.426;2023-03-21T09:36:54;14.65;;;8.65;;
49730;SDS011;35622;52.008;5.426;2023-03-21T09:39:21;14.73;;;8.63;;
49730;SDS011;35622;52.008;5.426;2023-03-21T09:41:53;13.88;;;7.55;;
49730;SDS011;35622;52.008;5.426;2023-03-21T09:49:46;15.93;;;8.68;;
49730;SDS011;35622;52.008;5.426;2023-03-21T09:52:29;12.93;;;8.00;;
49730;SDS011;35622;52.008;5.426;2023-03-21T09:55:02;13.75;;;8.43;;
49730;SDS011;35622;52.008;5.426;2023-03-21T09:57:43;12.52;;;7.60;;
49730;SDS011;35622;52.008;5.426;2023-03-21T10:00:16;11.68;;;6.65;;
49730;SDS011;35622;52.008;5.426;2023-03-21T10:02:50;11.57;;;7.80;;
49730;SDS011;35622;52.008;5.426;2023-03-21T10:07:45;12.40;;;7.43;;
49730;SDS011;35622;52.008;5.426;2023-03-21T10:10:38;12.43;;;7.43;;
49730;SDS011;35622;52.008;5.426;2023-03-21T10:13:12;13.60;;;7.82;;
49730;SDS011;35622;52.008;5.426;2023-03-21T10:15:47;13.38;;;7.68;;
49730;SDS011;35622;52.008;5.426;2023-03-21T10:18:17;16.00;;;7.70;;
49730;SDS011;35622;52.008;5.426;2023-03-21T10:20:46;12.38;;;7.57;;
49730;SDS011;35622;52.008;5.426;2023-03-21T10:23:14;12.10;;;7.25;;
49730;SDS011;35622;52.008;5.426;2023-03-21T10:25:43;10.93;;;7.00;;
49730;SDS011;35622;52.008;5.426;2023-03-21T10:28:16;9.73;;;6.50;;
49730;SDS011;35622;52.008;5.426;2023-03-21T10:30:45;12.23;;;6.22;;
49730;SDS011;35622;52.008;5.426;2023-03-21T10:33:26;11.30;;;6.55;;
49730;SDS011;35622;52.008;5.426;2023-03-21T10:35:58;11.63;;;6.38;;
49730;SDS011;35622;52.008;5.426;2023-03-21T10:38:37;10.77;;;6.18;;
49730;SDS011;35622;52.008;5.426;2023-03-21T10:41:09;12.90;;;6.57;;
49730;SDS011;35622;52.008;5.426;2023-03-21T10:43:37;10.40;;;6.38;;
49730;SDS011;35622;52.008;5.426;2023-03-21T10:46:06;11.75;;;6.35;;
49730;SDS011;35622;52.008;5.426;2023-03-21T10:48:35;10.63;;;6.47;;
49730;SDS011;35622;52.008;5.426;2023-03-21T10:51:04;13.70;;;6.20;;
49730;SDS011;35622;52.008;5.426;2023-03-21T10:53:32;10.75;;;5.60;;
49730;SDS011;35622;52.008;5.426;2023-03-21T10:56:02;11.13;;;6.00;;
49730;SDS011;35622;52.008;5.426;2023-03-21T10:58:37;8.60;;;5.82;;
49730;SDS011;35622;52.008;5.426;2023-03-21T11:01:08;10.73;;;6.15;;
49730;SDS011;35622;52.008;5.426;2023-03-21T11:03:39;9.35;;;5.35;;
49730;SDS011;35622;52.008;5.426;2023-03-21T11:08:50;9.73;;;5.05;;
49730;SDS011;35622;52.008;5.426;2023-03-21T11:11:24;10.15;;;6.07;;
49730;SDS011;35622;52.008;5.426;2023-03-21T11:13:56;10.27;;;5.15;;
49730;SDS011;35622;52.008;5.426;2023-03-21T11:16:30;10.45;;;5.97;;
49730;SDS011;35622;52.008;5.426;2023-03-21T11:19:10;10.73;;;5.18;;
49730;SDS011;35622;52.008;5.426;2023-03-21T11:21:40;9.57;;;5.05;;
49730;SDS011;35622;52.008;5.426;2023-03-21T11:24:09;12.98;;;5.18;;
49730;SDS011;35622;52.008;5.426;2023-03-21T11:26:40;7.63;;;4.95;;
49730;SDS011;35622;52.008;5.426;2023-03-21T11:29:10;10.95;;;5.65;;
49730;SDS011;35622;52.008;5.426;2023-03-21T11:31:51;10.90;;;4.90;;
49730;SDS011;35622;52.008;5.426;2023-03-21T11:35:19;7.90;;;5.18;;
49730;SDS011;35622;52.008;5.426;2023-03-21T11:37:30;10.38;;;5.28;;
49730;SDS011;35622;52.008;5.426;2023-03-21T11:47:47;9.27;;;5.68;;
49730;SDS011;35622;52.008;5.426;2023-03-21T11:58:16;10.05;;;5.60;;
49730;SDS011;35622;52.008;5.426;2023-03-21T12:03:54;8.85;;;5.80;;
49730;SDS011;35622;52.008;5.426;2023-03-21T12:06:44;11.38;;;6.13;;
49730;SDS011;35622;52.008;5.426;2023-03-21T12:15:05;11.48;;;5.60;;
49730;SDS011;35622;52.008;5.426;2023-03-21T12:23:56;9.88;;;5.43;;
49730;SDS011;35622;52.008;5.426;2023-03-21T12:36:15;13.25;;;6.68;;
49730;SDS011;35622;52.008;5.426;2023-03-21T12:41:44;9.98;;;6.35;;
49730;SDS011;35622;52.008;5.426;2023-03-21T12:44:12;10.88;;;6.88;;
49730;SDS011;35622;52.008;5.426;2023-03-21T12:46:53;10.18;;;7.10;;
49730;SDS011;35622;52.008;5.426;2023-03-21T12:49:27;9.57;;;7.38;;
49730;SDS011;35622;52.008;5.426;2023-03-21T12:52:34;10.13;;;6.93;;
49730;SDS011;35622;52.008;5.426;2023-03-21T12:54:59;10.07;;;6.60;;
49730;SDS011;35622;52.008;5.426;2023-03-21T12:57:46;15.15;;;7.28;;
49730;SDS011;35622;52.008;5.426;2023-03-21T13:00:18;10.15;;;6.75;;
49730;SDS011;35622;52.008;5.426;2023-03-21T13:03:02;12.40;;;7.10;;
49730;SDS011;35622;52.008;5.426;2023-03-21T13:05:51;11.35;;;6.95;;
49730;SDS011;35622;52.008;5.426;2023-03-21T13:08:23;11.57;;;6.38;;
49730;SDS011;35622;52.008;5.426;2023-03-21T13:11:09;8.68;;;5.90;;
49730;SDS011;35622;52.008;5.426;2023-03-21T13:16:43;9.32;;;5.97;;
49730;SDS011;35622;52.008;5.426;2023-03-21T13:19:26;9.20;;;5.13;;
49730;SDS011;35622;52.008;5.426;2023-03-21T13:24:41;6.57;;;4.90;;
49730;SDS011;35622;52.008;5.426;2023-03-21T13:27:28;7.95;;;4.93;;
49730;SDS011;35622;52.008;5.426;2023-03-21T13:30:03;8.70;;;4.95;;
49730;SDS011;35622;52.008;5.426;2023-03-21T13:38:20;11.38;;;5.78;;
49730;SDS011;35622;52.008;5.426;2023-03-21T13:41:12;8.32;;;5.55;;
49730;SDS011;35622;52.008;5.426;2023-03-21T13:44:23;9.40;;;5.80;;
49730;SDS011;35622;52.008;5.426;2023-03-21T13:54:00;8.10;;;5.70;;
49730;SDS011;35622;52.008;5.426;2023-03-21T13:56:29;9.30;;;5.95;;
49730;SDS011;35622;52.008;5.426;2023-03-21T13:59:18;11.93;;;6.18;;
49730;SDS011;35622;52.008;5.426;2023-03-21T14:04:38;8.70;;;5.50;;
49730;SDS011;35622;52.008;5.426;2023-03-21T14:07:06;7.78;;;5.00;;
49730;SDS011;35622;52.008;5.426;2023-03-21T14:09:37;9.65;;;6.18;;
49730;SDS011;35622;52.008;5.426;2023-03-21T14:12:16;9.80;;;5.90;;
49730;SDS011;35622;52.008;5.426;2023-03-21T14:14:51;9.23;;;6.40;;
49730;SDS011;35622;52.008;5.426;2023-03-21T14:17:23;10.35;;;5.90;;
49730;SDS011;35622;52.008;5.426;2023-03-21T14:19:54;8.40;;;6.00;;
49730;SDS011;35622;52.008;5.426;2023-03-21T14:22:23;8.50;;;6.20;;
49730;SDS011;35622;52.008;5.426;2023-03-21T14:24:58;10.77;;;6.30;;
49730;SDS011;35622;52.008;5.426;2023-03-21T14:27:27;9.50;;;6.57;;
49730;SDS011;35622;52.008;5.426;2023-03-21T14:29:58;9.10;;;5.88;;
49730;SDS011;35622;52.008;5.426;2023-03-21T14:32:26;9.43;;;6.28;;
49730;SDS011;35622;52.008;5.426;2023-03-21T14:34:54;10.45;;;6.78;;
49730;SDS011;35622;52.008;5.426;2023-03-21T14:37:25;8.23;;;6.47;;
49730;SDS011;35622;52.008;5.426;2023-03-21T14:39:59;8.98;;;7.40;;
49730;SDS011;35622;52.008;5.426;2023-03-21T14:42:26;10.73;;;8.23;;
49730;SDS011;35622;52.008;5.426;2023-03-21T14:44:57;11.75;;;8.40;;
49730;SDS011;35622;52.008;5.426;2023-03-21T14:47:28;12.98;;;8.80;;
49730;SDS011;35622;52.008;5.426;2023-03-21T14:49:56;12.07;;;9.00;;
49730;SDS011;35622;52.008;5.426;2023-03-21T14:52:28;11.73;;;8.85;;
49730;SDS011;35622;52.008;5.426;2023-03-21T14:54:55;12.52;;;8.90;;
49730;SDS011;35622;52.008;5.426;2023-03-21T14:57:23;11.70;;;9.20;;
49730;SDS011;35622;52.008;5.426;2023-03-21T14:59:53;11.30;;;9.23;;
49730;SDS011;35622;52.008;5.426;2023-03-21T15:02:25;15.60;;;8.63;;
49730;SDS011;35622;52.008;5.426;2023-03-21T15:04:56;11.23;;;8.20;;
49730;SDS011;35622;52.008;5.426;2023-03-21T15:07:30;11.52;;;7.53;;
49730;SDS011;35622;52.008;5.426;2023-03-21T15:10:01;11.13;;;7.68;;
49730;SDS011;35622;52.008;5.426;2023-03-21T15:12:30;10.90;;;7.80;;
49730;SDS011;35622;52.008;5.426;2023-03-21T15:14:56;9.45;;;7.18;;
49730;SDS011;35622;52.008;5.426;2023-03-21T15:17:23;14.23;;;7.43;;
49730;SDS011;35622;52.008;5.426;2023-03-21T15:19:50;11.55;;;6.88;;
49730;SDS011;35622;52.008;5.426;2023-03-21T15:24:53;11.85;;;7.70;;
49730;SDS011;35622;52.008;5.426;2023-03-21T15:27:24;9.98;;;7.25;;
49730;SDS011;35622;52.008;5.426;2023-03-21T15:29:52;8.85;;;7.03;;
49730;SDS011;35622;52.008;5.426;2023-03-21T15:32:19;13.55;;;7.85;;
49730;SDS011;35622;52.008;5.426;2023-03-21T15:34:48;11.30;;;7.60;;
49730;SDS011;35622;52.008;5.426;2023-03-21T15:37:25;12.18;;;7.63;;
49730;SDS011;35622;52.008;5.426;2023-03-21T15:39:52;8.88;;;7.22;;
49730;SDS011;35622;52.008;5.426;2023-03-21T15:42:35;10.48;;;7.32;;
49730;SDS011;35622;52.008;5.426;2023-03-21T15:45:44;10.60;;;7.80;;
49730;SDS011;35622;52.008;5.426;2023-03-21T15:48:02;13.25;;;7.60;;
49730;SDS011;35622;52.008;5.426;2023-03-21T15:50:34;10.98;;;7.60;;
49730;SDS011;35622;52.008;5.426;2023-03-21T15:53:04;11.02;;;7.43;;
49730;SDS011;35622;52.008;5.426;2023-03-21T15:55:37;10.65;;;7.82;;
49730;SDS011;35622;52.008;5.426;2023-03-21T15:58:33;10.80;;;7.65;;
49730;SDS011;35622;52.008;5.426;2023-03-21T16:01:05;11.70;;;8.25;;
49730;SDS011;35622;52.008;5.426;2023-03-21T16:03:37;13.10;;;8.23;;
49730;SDS011;35622;52.008;5.426;2023-03-21T16:08:33;11.30;;;8.60;;
49730;SDS011;35622;52.008;5.426;2023-03-21T16:11:08;10.23;;;9.00;;
49730;SDS011;35622;52.008;5.426;2023-03-21T16:13:49;15.23;;;10.20;;
49730;SDS011;35622;52.008;5.426;2023-03-21T16:16:16;12.35;;;9.30;;
49730;SDS011;35622;52.008;5.426;2023-03-21T16:18:50;14.52;;;9.15;;
49730;SDS011;35622;52.008;5.426;2023-03-21T16:21:17;14.23;;;9.13;;
49730;SDS011;35622;52.008;5.426;2023-03-21T16:23:45;11.88;;;9.15;;
49730;SDS011;35622;52.008;5.426;2023-03-21T16:26:15;12.63;;;9.30;;
49730;SDS011;35622;52.008;5.426;2023-03-21T16:28:43;13.23;;;10.45;;
49730;SDS011;35622;52.008;5.426;2023-03-21T16:31:12;14.68;;;11.18;;
49730;SDS011;35622;52.008;5.426;2023-03-21T16:33:40;15.15;;;10.40;;